sensor_id;sensor_type;location;lat;lon;timestamp;temperature;humidity
25334;DHT22;24559;53.590;9.764;2023-03-14T00:02:16;12.30;99.90
25334;DHT22;24559;53.590;9.764;2023-03-14T00:04:42;12.30;99.90
25334;DHT22;24559;53.590;9.764;2023-03-14T00:07:10;12.30;99.90
25334;DHT22;24559;53.590;9.764;2023-03-14T00:09:35;12.30;99.90
25334;DHT22;24559;53.590;9.764;2023-03-14T00:12:01;11.80;99.90
25334;DHT22;24559;53.590;9.764;2023-03-14T00:14:28;12.20;99.90
25334;DHT22;24559;53.590;9.764;2023-03-14T00:16:54;12.20;99.90
25334;DHT22;24559;53.590;9.764;2023-03-14T00:19:20;12.20;99.90
25334;DHT22;24559;53.590;9.764;2023-03-14T00:21:46;12.10;99.90
25334;DHT22;24559;53.590;9.764;2023-03-14T00:24:11;11.70;99.90
25334;DHT22;24559;53.590;9.764;2023-03-14T00:26:37;12.20;99.90
25334;DHT22;24559;53.590;9.764;2023-03-14T00:29:03;12.20;99.90
25334;DHT22;24559;53.590;9.764;2023-03-14T00:31:28;12.20;99.90
25334;DHT22;24559;53.590;9.764;2023-03-14T00:33:54;12.30;99.90
25334;DHT22;24559;53.590;9.764;2023-03-14T00:36:20;12.30;99.90
25334;DHT22;24559;53.590;9.764;2023-03-14T00:38:46;12.40;99.90
25334;DHT22;24559;53.590;9.764;2023-03-14T00:41:13;12.40;99.90
25334;DHT22;24559;53.590;9.764;2023-03-14T00:43:40;12.40;99.90
25334;DHT22;24559;53.590;9.764;2023-03-14T00:46:07;12.40;99.90
25334;DHT22;24559;53.590;9.764;2023-03-14T00:48:33;12.50;99.90
25334;DHT22;24559;53.590;9.764;2023-03-14T00:51:00;12.50;99.90
25334;DHT22;24559;53.590;9.764;2023-03-14T00:53:26;12.50;99.90
25334;DHT22;24559;53.590;9.764;2023-03-14T00:55:52;12.50;99.90
25334;DHT22;24559;53.590;9.764;2023-03-14T00:58:18;12.50;99.90
25334;DHT22;24559;53.590;9.764;2023-03-14T01:00:43;12.60;99.90
25334;DHT22;24559;53.590;9.764;2023-03-14T01:03:10;12.60;99.90
25334;DHT22;24559;53.590;9.764;2023-03-14T01:05:37;12.60;99.90
25334;DHT22;24559;53.590;9.764;2023-03-14T01:08:03;12.60;99.90
25334;DHT22;24559;53.590;9.764;2023-03-14T01:10:29;12.60;99.90
25334;DHT22;24559;53.590;9.764;2023-03-14T01:12:56;12.60;99.90
25334;DHT22;24559;53.590;9.764;2023-03-14T01:15:22;12.60;99.90
25334;DHT22;24559;53.590;9.764;2023-03-14T01:17:48;12.70;99.90
25334;DHT22;24559;53.590;9.764;2023-03-14T01:20:14;12.80;99.90
25334;DHT22;24559;53.590;9.764;2023-03-14T01:22:40;12.70;99.90
25334;DHT22;24559;53.590;9.764;2023-03-14T01:25:06;12.80;99.90
25334;DHT22;24559;53.590;9.764;2023-03-14T01:27:32;12.70;99.90
25334;DHT22;24559;53.590;9.764;2023-03-14T01:29:58;12.70;99.90
25334;DHT22;24559;53.590;9.764;2023-03-14T01:32:24;12.80;99.90
25334;DHT22;24559;53.590;9.764;2023-03-14T01:34:52;12.70;99.90
25334;DHT22;24559;53.590;9.764;2023-03-14T01:37:17;12.80;99.90
25334;DHT22;24559;53.590;9.764;2023-03-14T01:39:43;12.80;99.90
25334;DHT22;24559;53.590;9.764;2023-03-14T01:42:09;12.80;99.90
25334;DHT22;24559;53.590;9.764;2023-03-14T01:44:52;12.80;99.90
25334;DHT22;24559;53.590;9.764;2023-03-14T01:47:18;12.80;99.90
25334;DHT22;24559;53.590;9.764;2023-03-14T01:49:46;12.70;99.90
25334;DHT22;24559;53.590;9.764;2023-03-14T01:52:16;12.60;99.90
25334;DHT22;24559;53.590;9.764;2023-03-14T01:54:51;12.60;99.90
25334;DHT22;24559;53.590;9.764;2023-03-14T01:57:19;12.60;99.90
25334;DHT22;24559;53.590;9.764;2023-03-14T01:59:57;12.50;99.90
25334;DHT22;24559;53.590;9.764;2023-03-14T02:02:23;12.50;99.90
25334;DHT22;24559;53.590;9.764;2023-03-14T02:04:53;12.40;99.90
25334;DHT22;24559;53.590;9.764;2023-03-14T02:07:24;12.40;99.90
25334;DHT22;24559;53.590;9.764;2023-03-14T02:10:01;12.40;99.90
25334;DHT22;24559;53.590;9.764;2023-03-14T02:12:30;12.50;99.90
25334;DHT22;24559;53.590;9.764;2023-03-14T02:15:19;12.40;99.90
25334;DHT22;24559;53.590;9.764;2023-03-14T02:18:14;12.70;99.90
25334;DHT22;24559;53.590;9.764;2023-03-14T02:21:05;12.50;99.90
25334;DHT22;24559;53.590;9.764;2023-03-14T02:28:57;12.40;99.90
25334;DHT22;24559;53.590;9.764;2023-03-14T02:31:23;11.90;99.90
25334;DHT22;24559;53.590;9.764;2023-03-14T02:33:49;12.40;99.90
25334;DHT22;24559;53.590;9.764;2023-03-14T02:36:16;12.40;99.90
25334;DHT22;24559;53.590;9.764;2023-03-14T02:38:47;12.60;99.90
25334;DHT22;24559;53.590;9.764;2023-03-14T02:41:15;12.40;99.90
25334;DHT22;24559;53.590;9.764;2023-03-14T02:43:47;12.40;99.90
25334;DHT22;24559;53.590;9.764;2023-03-14T02:46:14;12.40;99.90
25334;DHT22;24559;53.590;9.764;2023-03-14T02:51:09;12.40;99.90
25334;DHT22;24559;53.590;9.764;2023-03-14T02:53:36;12.40;99.90
25334;DHT22;24559;53.590;9.764;2023-03-14T02:56:07;12.50;99.90
25334;DHT22;24559;53.590;9.764;2023-03-14T02:58:34;12.40;99.90
25334;DHT22;24559;53.590;9.764;2023-03-14T03:01:11;12.40;99.90
25334;DHT22;24559;53.590;9.764;2023-03-14T03:03:37;12.40;99.90
25334;DHT22;24559;53.590;9.764;2023-03-14T03:06:03;12.50;99.90
25334;DHT22;24559;53.590;9.764;2023-03-14T03:08:29;12.30;99.90
25334;DHT22;24559;53.590;9.764;2023-03-14T03:10:57;12.40;99.90
25334;DHT22;24559;53.590;9.764;2023-03-14T03:13:24;12.40;99.90
25334;DHT22;24559;53.590;9.764;2023-03-14T03:15:53;12.50;99.90
25334;DHT22;24559;53.590;9.764;2023-03-14T03:18:18;12.50;99.90
25334;DHT22;24559;53.590;9.764;2023-03-14T03:20:44;12.40;99.90
25334;DHT22;24559;53.590;9.764;2023-03-14T03:23:11;12.60;99.90
25334;DHT22;24559;53.590;9.764;2023-03-14T03:25:37;12.60;99.90
25334;DHT22;24559;53.590;9.764;2023-03-14T03:28:04;12.60;99.90
25334;DHT22;24559;53.590;9.764;2023-03-14T03:30:37;12.70;99.90
25334;DHT22;24559;53.590;9.764;2023-03-14T03:33:03;12.70;99.90
25334;DHT22;24559;53.590;9.764;2023-03-14T03:35:29;12.80;99.90
25334;DHT22;24559;53.590;9.764;2023-03-14T03:37:56;12.70;99.90
25334;DHT22;24559;53.590;9.764;2023-03-14T03:40:23;12.70;99.90
25334;DHT22;24559;53.590;9.764;2023-03-14T03:42:49;12.80;99.90
25334;DHT22;24559;53.590;9.764;2023-03-14T03:45:15;12.80;99.90
25334;DHT22;24559;53.590;9.764;2023-03-14T03:47:49;12.80;99.90
25334;DHT22;24559;53.590;9.764;2023-03-14T03:50:15;12.20;99.90
25334;DHT22;24559;53.590;9.764;2023-03-14T03:52:40;12.90;99.90
25334;DHT22;24559;53.590;9.764;2023-03-14T03:55:06;12.90;99.90
25334;DHT22;24559;53.590;9.764;2023-03-14T03:57:32;12.80;99.90
25334;DHT22;24559;53.590;9.764;2023-03-14T03:59:58;11.90;99.90
25334;DHT22;24559;53.590;9.764;2023-03-14T04:02:23;12.70;99.90
25334;DHT22;24559;53.590;9.764;2023-03-14T04:04:50;12.70;99.90
25334;DHT22;24559;53.590;9.764;2023-03-14T04:07:18;12.70;99.90
25334;DHT22;24559;53.590;9.764;2023-03-14T04:09:44;12.70;99.90
25334;DHT22;24559;53.590;9.764;2023-03-14T04:12:28;12.70;99.90
25334;DHT22;24559;53.590;9.764;2023-03-14T04:15:00;12.60;99.90
25334;DHT22;24559;53.590;9.764;2023-03-14T04:17:26;12.60;99.90
25334;DHT22;24559;53.590;9.764;2023-03-14T04:19:52;12.80;99.90
25334;DHT22;24559;53.590;9.764;2023-03-14T04:22:24;12.80;99.90
25334;DHT22;24559;53.590;9.764;2023-03-14T04:24:51;12.80;99.90
25334;DHT22;24559;53.590;9.764;2023-03-14T04:27:18;12.80;99.90
25334;DHT22;24559;53.590;9.764;2023-03-14T04:29:45;12.90;99.90
25334;DHT22;24559;53.590;9.764;2023-03-14T04:32:14;12.70;99.90
25334;DHT22;24559;53.590;9.764;2023-03-14T04:34:40;12.50;99.90
25334;DHT22;24559;53.590;9.764;2023-03-14T04:37:06;12.80;99.90
25334;DHT22;24559;53.590;9.764;2023-03-14T04:39:39;12.90;99.90
25334;DHT22;24559;53.590;9.764;2023-03-14T04:42:12;12.70;99.90
25334;DHT22;24559;53.590;9.764;2023-03-14T04:44:38;12.60;99.90
25334;DHT22;24559;53.590;9.764;2023-03-14T04:47:04;12.30;99.90
25334;DHT22;24559;53.590;9.764;2023-03-14T04:49:30;12.40;99.90
25334;DHT22;24559;53.590;9.764;2023-03-14T04:51:56;12.30;99.90
25334;DHT22;24559;53.590;9.764;2023-03-14T04:54:24;12.20;99.90
25334;DHT22;24559;53.590;9.764;2023-03-14T04:56:55;12.10;99.90
25334;DHT22;24559;53.590;9.764;2023-03-14T04:59:23;12.00;99.90
25334;DHT22;24559;53.590;9.764;2023-03-14T05:01:51;12.00;99.90
25334;DHT22;24559;53.590;9.764;2023-03-14T05:04:36;12.00;99.90
25334;DHT22;24559;53.590;9.764;2023-03-14T05:07:13;11.90;99.90
25334;DHT22;24559;53.590;9.764;2023-03-14T05:09:53;11.80;99.90
25334;DHT22;24559;53.590;9.764;2023-03-14T05:12:32;11.40;99.90
25334;DHT22;24559;53.590;9.764;2023-03-14T05:15:20;11.70;99.90
25334;DHT22;24559;53.590;9.764;2023-03-14T05:17:49;11.70;99.90
25334;DHT22;24559;53.590;9.764;2023-03-14T05:20:33;11.70;99.90
25334;DHT22;24559;53.590;9.764;2023-03-14T05:23:31;11.60;99.90
25334;DHT22;24559;53.590;9.764;2023-03-14T05:26:11;11.60;99.90
25334;DHT22;24559;53.590;9.764;2023-03-14T05:29:03;11.60;99.90
25334;DHT22;24559;53.590;9.764;2023-03-14T05:31:55;11.50;99.90
25334;DHT22;24559;53.590;9.764;2023-03-14T05:34:40;11.50;99.90
25334;DHT22;24559;53.590;9.764;2023-03-14T05:37:31;11.60;99.90
25334;DHT22;24559;53.590;9.764;2023-03-14T05:40:21;11.60;99.90
25334;DHT22;24559;53.590;9.764;2023-03-14T05:43:10;11.60;99.90
25334;DHT22;24559;53.590;9.764;2023-03-14T05:45:49;11.60;99.90
25334;DHT22;24559;53.590;9.764;2023-03-14T05:48:33;11.60;99.90
25334;DHT22;24559;53.590;9.764;2023-03-14T05:51:12;11.60;99.90
25334;DHT22;24559;53.590;9.764;2023-03-14T05:53:57;11.60;99.90
25334;DHT22;24559;53.590;9.764;2023-03-14T05:56:42;11.60;99.90
25334;DHT22;24559;53.590;9.764;2023-03-14T05:59:11;11.60;99.90
25334;DHT22;24559;53.590;9.764;2023-03-14T06:01:57;11.60;99.90
25334;DHT22;24559;53.590;9.764;2023-03-14T06:04:27;11.60;99.90
25334;DHT22;24559;53.590;9.764;2023-03-14T06:06:56;11.60;99.90
25334;DHT22;24559;53.590;9.764;2023-03-14T06:09:23;11.60;99.90
25334;DHT22;24559;53.590;9.764;2023-03-14T06:11:50;11.50;99.90
25334;DHT22;24559;53.590;9.764;2023-03-14T06:14:16;11.50;99.90
25334;DHT22;24559;53.590;9.764;2023-03-14T06:16:45;11.60;99.90
25334;DHT22;24559;53.590;9.764;2023-03-14T06:19:11;11.50;99.90
25334;DHT22;24559;53.590;9.764;2023-03-14T06:21:37;11.60;99.90
25334;DHT22;24559;53.590;9.764;2023-03-14T06:24:03;11.60;99.90
25334;DHT22;24559;53.590;9.764;2023-03-14T06:26:32;11.70;99.90
25334;DHT22;24559;53.590;9.764;2023-03-14T06:28:58;10.90;99.90
25334;DHT22;24559;53.590;9.764;2023-03-14T06:31:29;11.80;99.90
25334;DHT22;24559;53.590;9.764;2023-03-14T06:33:59;11.60;99.90
25334;DHT22;24559;53.590;9.764;2023-03-14T06:36:28;11.60;99.90
25334;DHT22;24559;53.590;9.764;2023-03-14T06:38:55;11.50;99.90
25334;DHT22;24559;53.590;9.764;2023-03-14T06:41:21;11.60;99.90
25334;DHT22;24559;53.590;9.764;2023-03-14T06:43:49;11.60;99.90
25334;DHT22;24559;53.590;9.764;2023-03-14T06:46:15;11.60;99.90
25334;DHT22;24559;53.590;9.764;2023-03-14T06:48:42;11.60;99.90
25334;DHT22;24559;53.590;9.764;2023-03-14T06:51:08;11.70;99.90
25334;DHT22;24559;53.590;9.764;2023-03-14T06:53:34;11.70;99.90
25334;DHT22;24559;53.590;9.764;2023-03-14T06:56:02;11.60;99.90
25334;DHT22;24559;53.590;9.764;2023-03-14T06:58:29;11.80;99.90
25334;DHT22;24559;53.590;9.764;2023-03-14T07:00:55;11.90;99.90
25334;DHT22;24559;53.590;9.764;2023-03-14T07:03:27;11.80;99.90
25334;DHT22;24559;53.590;9.764;2023-03-14T07:05:54;11.70;99.90
25334;DHT22;24559;53.590;9.764;2023-03-14T07:08:20;11.70;99.90
25334;DHT22;24559;53.590;9.764;2023-03-14T07:10:46;11.60;99.90
25334;DHT22;24559;53.590;9.764;2023-03-14T07:13:12;11.70;99.90
25334;DHT22;24559;53.590;9.764;2023-03-14T07:15:49;11.90;99.90
25334;DHT22;24559;53.590;9.764;2023-03-14T07:18:15;11.90;99.90
25334;DHT22;24559;53.590;9.764;2023-03-14T07:20:40;12.00;99.90
25334;DHT22;24559;53.590;9.764;2023-03-14T07:23:07;11.90;99.90
25334;DHT22;24559;53.590;9.764;2023-03-14T07:25:39;12.00;99.90
25334;DHT22;24559;53.590;9.764;2023-03-14T07:28:05;12.00;99.90
25334;DHT22;24559;53.590;9.764;2023-03-14T07:30:31;12.10;99.90
25334;DHT22;24559;53.590;9.764;2023-03-14T07:33:02;12.20;99.90
25334;DHT22;24559;53.590;9.764;2023-03-14T07:35:28;12.10;99.90
25334;DHT22;24559;53.590;9.764;2023-03-14T07:37:53;12.20;99.90
25334;DHT22;24559;53.590;9.764;2023-03-14T07:40:27;12.30;99.90
25334;DHT22;24559;53.590;9.764;2023-03-14T07:42:53;12.10;99.90
25334;DHT22;24559;53.590;9.764;2023-03-14T07:45:36;12.10;99.90
25334;DHT22;24559;53.590;9.764;2023-03-14T07:48:01;12.00;99.90
25334;DHT22;24559;53.590;9.764;2023-03-14T07:50:27;12.10;99.90
25334;DHT22;24559;53.590;9.764;2023-03-14T07:52:54;12.10;99.90
25334;DHT22;24559;53.590;9.764;2023-03-14T07:55:19;12.00;99.90
25334;DHT22;24559;53.590;9.764;2023-03-14T07:57:45;12.10;99.90
25334;DHT22;24559;53.590;9.764;2023-03-14T08:00:11;12.30;99.90
25334;DHT22;24559;53.590;9.764;2023-03-14T08:02:40;12.40;99.90
25334;DHT22;24559;53.590;9.764;2023-03-14T08:05:06;12.50;99.90
25334;DHT22;24559;53.590;9.764;2023-03-14T08:07:31;12.50;99.90
25334;DHT22;24559;53.590;9.764;2023-03-14T08:09:57;12.50;99.90
25334;DHT22;24559;53.590;9.764;2023-03-14T08:12:23;12.70;99.90
25334;DHT22;24559;53.590;9.764;2023-03-14T08:14:48;12.80;99.90
25334;DHT22;24559;53.590;9.764;2023-03-14T08:17:14;12.80;99.90
25334;DHT22;24559;53.590;9.764;2023-03-14T08:19:43;12.90;99.90
25334;DHT22;24559;53.590;9.764;2023-03-14T08:22:08;12.90;99.90
25334;DHT22;24559;53.590;9.764;2023-03-14T08:24:34;12.20;99.90
25334;DHT22;24559;53.590;9.764;2023-03-14T08:27:00;13.10;99.90
25334;DHT22;24559;53.590;9.764;2023-03-14T08:29:25;13.10;99.90
25334;DHT22;24559;53.590;9.764;2023-03-14T08:31:52;13.20;99.90
25334;DHT22;24559;53.590;9.764;2023-03-14T08:34:20;13.30;99.90
25334;DHT22;24559;53.590;9.764;2023-03-14T08:36:46;13.30;99.90
25334;DHT22;24559;53.590;9.764;2023-03-14T08:39:11;13.40;99.90
25334;DHT22;24559;53.590;9.764;2023-03-14T08:41:37;13.50;99.90
25334;DHT22;24559;53.590;9.764;2023-03-14T08:44:06;13.40;99.90
25334;DHT22;24559;53.590;9.764;2023-03-14T08:46:31;13.20;99.90
25334;DHT22;24559;53.590;9.764;2023-03-14T08:48:57;13.20;99.90
25334;DHT22;24559;53.590;9.764;2023-03-14T08:51:23;13.00;99.90
25334;DHT22;24559;53.590;9.764;2023-03-14T08:53:49;12.80;99.90
25334;DHT22;24559;53.590;9.764;2023-03-14T08:56:15;12.80;99.90
25334;DHT22;24559;53.590;9.764;2023-03-14T08:58:41;13.00;99.90
25334;DHT22;24559;53.590;9.764;2023-03-14T09:01:08;13.00;99.90
25334;DHT22;24559;53.590;9.764;2023-03-14T09:03:34;13.10;99.90
25334;DHT22;24559;53.590;9.764;2023-03-14T09:06:04;13.00;99.90
25334;DHT22;24559;53.590;9.764;2023-03-14T09:08:30;13.00;99.90
25334;DHT22;24559;53.590;9.764;2023-03-14T09:10:56;13.00;99.90
25334;DHT22;24559;53.590;9.764;2023-03-14T09:13:22;12.90;99.90
25334;DHT22;24559;53.590;9.764;2023-03-14T09:15:55;13.00;99.90
25334;DHT22;24559;53.590;9.764;2023-03-14T09:18:21;12.70;99.90
25334;DHT22;24559;53.590;9.764;2023-03-14T09:20:48;12.80;99.90
25334;DHT22;24559;53.590;9.764;2023-03-14T09:23:14;12.80;99.90
25334;DHT22;24559;53.590;9.764;2023-03-14T09:25:40;12.80;99.90
25334;DHT22;24559;53.590;9.764;2023-03-14T09:28:05;12.80;99.90
25334;DHT22;24559;53.590;9.764;2023-03-14T09:30:31;12.80;99.90
25334;DHT22;24559;53.590;9.764;2023-03-14T09:32:57;12.90;99.90
25334;DHT22;24559;53.590;9.764;2023-03-14T09:35:24;12.80;99.90
25334;DHT22;24559;53.590;9.764;2023-03-14T09:37:50;12.70;99.90
25334;DHT22;24559;53.590;9.764;2023-03-14T09:40:16;12.60;99.90
25334;DHT22;24559;53.590;9.764;2023-03-14T09:42:42;12.30;99.90
25334;DHT22;24559;53.590;9.764;2023-03-14T09:45:25;11.80;99.90
25334;DHT22;24559;53.590;9.764;2023-03-14T09:47:52;11.60;99.90
25334;DHT22;24559;53.590;9.764;2023-03-14T09:50:19;11.40;99.90
25334;DHT22;24559;53.590;9.764;2023-03-14T09:52:48;11.30;99.90
25334;DHT22;24559;53.590;9.764;2023-03-14T09:55:16;11.20;99.90
25334;DHT22;24559;53.590;9.764;2023-03-14T09:57:42;11.20;99.90
25334;DHT22;24559;53.590;9.764;2023-03-14T10:00:21;11.00;99.90
25334;DHT22;24559;53.590;9.764;2023-03-14T10:05:33;10.70;99.90
25334;DHT22;24559;53.590;9.764;2023-03-14T10:07:58;10.70;99.90
25334;DHT22;24559;53.590;9.764;2023-03-14T10:10:25;10.60;99.90
25334;DHT22;24559;53.590;9.764;2023-03-14T10:13:24;10.50;99.90
25334;DHT22;24559;53.590;9.764;2023-03-14T10:15:46;10.20;99.90
25334;DHT22;24559;53.590;9.764;2023-03-14T10:18:12;9.80;99.90
25334;DHT22;24559;53.590;9.764;2023-03-14T10:20:39;9.50;99.90
25334;DHT22;24559;53.590;9.764;2023-03-14T10:25:33;9.60;99.90
25334;DHT22;24559;53.590;9.764;2023-03-14T10:27:59;9.70;99.90
25334;DHT22;24559;53.590;9.764;2023-03-14T10:33:31;9.50;99.90
25334;DHT22;24559;53.590;9.764;2023-03-14T10:35:56;9.40;99.90
25334;DHT22;24559;53.590;9.764;2023-03-14T10:38:24;9.30;99.90
25334;DHT22;24559;53.590;9.764;2023-03-14T10:40:51;10.10;99.90
25334;DHT22;24559;53.590;9.764;2023-03-14T10:43:19;9.40;99.90
25334;DHT22;24559;53.590;9.764;2023-03-14T10:45:51;9.50;99.90
25334;DHT22;24559;53.590;9.764;2023-03-14T10:48:22;9.60;99.90
25334;DHT22;24559;53.590;9.764;2023-03-14T10:50:50;9.30;99.90
25334;DHT22;24559;53.590;9.764;2023-03-14T10:53:18;9.30;99.90
25334;DHT22;24559;53.590;9.764;2023-03-14T10:55:44;9.10;99.90
25334;DHT22;24559;53.590;9.764;2023-03-14T10:58:17;9.10;99.90
25334;DHT22;24559;53.590;9.764;2023-03-14T11:00:44;9.00;99.90
25334;DHT22;24559;53.590;9.764;2023-03-14T11:03:10;9.00;99.90
25334;DHT22;24559;53.590;9.764;2023-03-14T11:10:54;8.90;99.90
25334;DHT22;24559;53.590;9.764;2023-03-14T11:14:06;9.30;99.90
25334;DHT22;24559;53.590;9.764;2023-03-14T11:16:34;8.60;99.90
25334;DHT22;24559;53.590;9.764;2023-03-14T11:29:57;9.00;99.90
25334;DHT22;24559;53.590;9.764;2023-03-14T11:35:52;8.80;99.90
25334;DHT22;24559;53.590;9.764;2023-03-14T11:40:42;8.70;99.90
25334;DHT22;24559;53.590;9.764;2023-03-14T11:45:36;8.70;99.90
25334;DHT22;24559;53.590;9.764;2023-03-14T11:48:25;8.60;99.90
25334;DHT22;24559;53.590;9.764;2023-03-14T11:50:49;8.60;99.90
25334;DHT22;24559;53.590;9.764;2023-03-14T11:53:18;8.50;99.90
25334;DHT22;24559;53.590;9.764;2023-03-14T11:55:45;8.70;99.90
25334;DHT22;24559;53.590;9.764;2023-03-14T11:58:19;8.80;99.90
25334;DHT22;24559;53.590;9.764;2023-03-14T12:00:46;9.00;99.90
25334;DHT22;24559;53.590;9.764;2023-03-14T12:13:49;8.80;99.90
25334;DHT22;24559;53.590;9.764;2023-03-14T12:16:37;8.80;99.90
25334;DHT22;24559;53.590;9.764;2023-03-14T12:21:47;8.50;99.90
25334;DHT22;24559;53.590;9.764;2023-03-14T12:24:17;8.60;99.90
25334;DHT22;24559;53.590;9.764;2023-03-14T12:26:58;8.60;99.90
25334;DHT22;24559;53.590;9.764;2023-03-14T12:29:24;8.80;99.90
25334;DHT22;24559;53.590;9.764;2023-03-14T12:32:06;8.80;99.90
25334;DHT22;24559;53.590;9.764;2023-03-14T12:34:32;9.00;99.90
25334;DHT22;24559;53.590;9.764;2023-03-14T12:37:04;9.10;99.90
25334;DHT22;24559;53.590;9.764;2023-03-14T12:42:04;9.10;99.90
25334;DHT22;24559;53.590;9.764;2023-03-14T12:46:58;8.50;99.90
25334;DHT22;24559;53.590;9.764;2023-03-14T12:49:33;8.50;99.90
25334;DHT22;24559;53.590;9.764;2023-03-14T12:52:01;8.40;99.90
25334;DHT22;24559;53.590;9.764;2023-03-14T12:54:35;8.40;99.90
25334;DHT22;24559;53.590;9.764;2023-03-14T13:05:05;8.50;99.90
25334;DHT22;24559;53.590;9.764;2023-03-14T13:10:26;8.70;99.90
25334;DHT22;24559;53.590;9.764;2023-03-14T13:15:29;8.90;99.90
25334;DHT22;24559;53.590;9.764;2023-03-14T13:17:59;8.90;99.90
25334;DHT22;24559;53.590;9.764;2023-03-14T13:22:54;9.30;99.90
25334;DHT22;24559;53.590;9.764;2023-03-14T13:25:20;9.50;99.90
25334;DHT22;24559;53.590;9.764;2023-03-14T13:27:48;9.70;99.90
25334;DHT22;24559;53.590;9.764;2023-03-14T13:32:41;9.40;99.90
25334;DHT22;24559;53.590;9.764;2023-03-14T13:35:23;9.30;99.90
25334;DHT22;24559;53.590;9.764;2023-03-14T13:37:54;9.20;99.90
25334;DHT22;24559;53.590;9.764;2023-03-14T13:40:25;9.30;99.90
25334;DHT22;24559;53.590;9.764;2023-03-14T13:42:59;9.50;99.90
25334;DHT22;24559;53.590;9.764;2023-03-14T13:45:25;9.80;99.90
25334;DHT22;24559;53.590;9.764;2023-03-14T13:47:51;10.10;99.90
25334;DHT22;24559;53.590;9.764;2023-03-14T13:50:17;9.90;99.90
25334;DHT22;24559;53.590;9.764;2023-03-14T13:52:43;9.90;99.90
25334;DHT22;24559;53.590;9.764;2023-03-14T13:55:16;9.90;99.90
25334;DHT22;24559;53.590;9.764;2023-03-14T13:57:47;9.70;99.90
25334;DHT22;24559;53.590;9.764;2023-03-14T14:00:20;9.80;99.90
25334;DHT22;24559;53.590;9.764;2023-03-14T14:02:46;9.40;99.90
25334;DHT22;24559;53.590;9.764;2023-03-14T14:05:13;9.20;99.90
25334;DHT22;24559;53.590;9.764;2023-03-14T14:07:39;9.20;99.90
25334;DHT22;24559;53.590;9.764;2023-03-14T14:10:05;9.60;99.90
25334;DHT22;24559;53.590;9.764;2023-03-14T14:12:33;9.30;99.90
25334;DHT22;24559;53.590;9.764;2023-03-14T14:19:58;8.80;99.90
25334;DHT22;24559;53.590;9.764;2023-03-14T14:22:25;8.90;99.90
25334;DHT22;24559;53.590;9.764;2023-03-14T14:24:51;9.10;99.90
25334;DHT22;24559;53.590;9.764;2023-03-14T14:27:19;9.10;99.90
25334;DHT22;24559;53.590;9.764;2023-03-14T14:32:42;9.00;99.90
25334;DHT22;24559;53.590;9.764;2023-03-14T14:35:09;9.30;99.90
25334;DHT22;24559;53.590;9.764;2023-03-14T14:37:40;8.90;99.90
25334;DHT22;24559;53.590;9.764;2023-03-14T14:40:22;8.80;99.90
25334;DHT22;24559;53.590;9.764;2023-03-14T14:42:48;9.00;99.90
25334;DHT22;24559;53.590;9.764;2023-03-14T14:45:24;9.00;99.90
25334;DHT22;24559;53.590;9.764;2023-03-14T14:48:21;8.70;99.90
25334;DHT22;24559;53.590;9.764;2023-03-14T14:50:49;8.90;99.90
25334;DHT22;24559;53.590;9.764;2023-03-14T14:53:19;9.00;99.90
25334;DHT22;24559;53.590;9.764;2023-03-14T14:55:48;9.00;99.90
25334;DHT22;24559;53.590;9.764;2023-03-14T14:58:19;9.10;99.90
25334;DHT22;24559;53.590;9.764;2023-03-14T15:00:55;9.40;99.90
25334;DHT22;24559;53.590;9.764;2023-03-14T15:03:21;9.40;99.90
25334;DHT22;24559;53.590;9.764;2023-03-14T15:05:47;9.30;99.90
25334;DHT22;24559;53.590;9.764;2023-03-14T15:08:12;9.10;99.90
25334;DHT22;24559;53.590;9.764;2023-03-14T15:10:38;9.50;99.90
25334;DHT22;24559;53.590;9.764;2023-03-14T15:13:04;9.30;99.90
25334;DHT22;24559;53.590;9.764;2023-03-14T15:15:30;9.50;99.90
25334;DHT22;24559;53.590;9.764;2023-03-14T15:17:56;9.60;99.90
25334;DHT22;24559;53.590;9.764;2023-03-14T15:20:22;9.40;99.90
25334;DHT22;24559;53.590;9.764;2023-03-14T15:22:51;9.40;99.90
25334;DHT22;24559;53.590;9.764;2023-03-14T15:25:16;9.50;99.90
25334;DHT22;24559;53.590;9.764;2023-03-14T15:27:42;9.40;99.90
25334;DHT22;24559;53.590;9.764;2023-03-14T15:30:12;9.40;99.90
25334;DHT22;24559;53.590;9.764;2023-03-14T15:32:38;9.30;99.90
25334;DHT22;24559;53.590;9.764;2023-03-14T15:35:04;9.00;99.90
25334;DHT22;24559;53.590;9.764;2023-03-14T15:37:29;9.00;99.90
25334;DHT22;24559;53.590;9.764;2023-03-14T15:39:56;8.70;99.90
25334;DHT22;24559;53.590;9.764;2023-03-14T15:42:25;8.80;99.90
25334;DHT22;24559;53.590;9.764;2023-03-14T15:44:51;7.70;99.90
25334;DHT22;24559;53.590;9.764;2023-03-14T15:47:16;8.40;99.90
25334;DHT22;24559;53.590;9.764;2023-03-14T15:49:43;8.60;99.90
25334;DHT22;24559;53.590;9.764;2023-03-14T15:52:09;8.40;99.90
25334;DHT22;24559;53.590;9.764;2023-03-14T15:54:35;8.40;99.90
25334;DHT22;24559;53.590;9.764;2023-03-14T15:57:00;9.00;99.90
25334;DHT22;24559;53.590;9.764;2023-03-14T15:59:26;8.30;99.90
25334;DHT22;24559;53.590;9.764;2023-03-14T16:01:57;8.50;99.90
25334;DHT22;24559;53.590;9.764;2023-03-14T16:04:23;8.50;99.90
25334;DHT22;24559;53.590;9.764;2023-03-14T16:06:49;8.30;99.90
25334;DHT22;24559;53.590;9.764;2023-03-14T16:09:15;8.70;99.90
25334;DHT22;24559;53.590;9.764;2023-03-14T16:11:40;8.30;99.90
25334;DHT22;24559;53.590;9.764;2023-03-14T16:14:06;8.20;99.90
25334;DHT22;24559;53.590;9.764;2023-03-14T16:16:31;8.00;99.90
25334;DHT22;24559;53.590;9.764;2023-03-14T16:18:57;7.90;99.90
25334;DHT22;24559;53.590;9.764;2023-03-14T16:21:23;8.00;99.90
25334;DHT22;24559;53.590;9.764;2023-03-14T16:23:49;7.80;99.90
25334;DHT22;24559;53.590;9.764;2023-03-14T16:26:16;7.90;99.90
25334;DHT22;24559;53.590;9.764;2023-03-14T16:28:42;8.00;99.90
25334;DHT22;24559;53.590;9.764;2023-03-14T16:31:09;8.10;99.90
25334;DHT22;24559;53.590;9.764;2023-03-14T16:33:36;7.90;99.90
25334;DHT22;24559;53.590;9.764;2023-03-14T16:36:03;7.80;99.90
25334;DHT22;24559;53.590;9.764;2023-03-14T16:38:37;7.50;99.90
25334;DHT22;24559;53.590;9.764;2023-03-14T16:41:04;7.30;99.90
25334;DHT22;24559;53.590;9.764;2023-03-14T16:43:30;7.30;99.90
25334;DHT22;24559;53.590;9.764;2023-03-14T16:45:57;7.40;99.90
25334;DHT22;24559;53.590;9.764;2023-03-14T16:48:24;7.60;99.90
25334;DHT22;24559;53.590;9.764;2023-03-14T16:50:50;7.50;99.90
25334;DHT22;24559;53.590;9.764;2023-03-14T16:53:16;7.50;99.90
25334;DHT22;24559;53.590;9.764;2023-03-14T16:55:42;7.50;99.90
25334;DHT22;24559;53.590;9.764;2023-03-14T16:58:08;7.40;99.90
25334;DHT22;24559;53.590;9.764;2023-03-14T17:00:33;7.40;99.90
25334;DHT22;24559;53.590;9.764;2023-03-14T17:02:59;7.30;99.90
25334;DHT22;24559;53.590;9.764;2023-03-14T17:05:25;7.10;99.90
25334;DHT22;24559;53.590;9.764;2023-03-14T17:07:51;7.00;99.90
25334;DHT22;24559;53.590;9.764;2023-03-14T17:10:16;7.10;99.90
25334;DHT22;24559;53.590;9.764;2023-03-14T17:12:43;7.20;99.90
25334;DHT22;24559;53.590;9.764;2023-03-14T17:15:09;7.20;99.90